createdAt,value
2022-10-30T00:00:00.213Z,8.43
2022-10-30T00:02:28.001Z,8.30
2022-10-30T00:04:55.861Z,10.20
2022-10-30T00:07:24.968Z,8.20
2022-10-30T00:09:52.756Z,7.68
2022-10-30T00:12:20.582Z,8.75
2022-10-30T00:14:48.263Z,10.40
2022-10-30T00:17:16.026Z,7.95
2022-10-30T00:19:43.806Z,7.63
2022-10-30T00:22:11.522Z,9.23
2022-10-30T00:24:40.712Z,8.57
2022-10-30T00:27:08.606Z,7.93
2022-10-30T00:29:36.370Z,8.32
2022-10-30T00:32:04.292Z,9.02
2022-10-30T00:34:32.091Z,9.33
2022-10-30T00:36:59.884Z,7.97
2022-10-30T00:39:27.719Z,9.50
2022-10-30T00:41:56.970Z,9.50
2022-10-30T00:44:37.257Z,9.53
2022-10-30T00:47:12.933Z,9.20
2022-10-30T00:49:50.827Z,9.15
2022-10-30T00:52:20.569Z,9.30
2022-10-30T00:54:48.716Z,9.80
2022-10-30T00:57:18.997Z,9.73
2022-10-30T00:59:47.876Z,9.23
2022-10-30T01:02:15.988Z,9.33
2022-10-30T01:04:46.476Z,9.17
2022-10-30T01:07:17.376Z,9.13
2022-10-30T01:09:47.508Z,9.90
2022-10-30T01:12:17.943Z,9.20
2022-10-30T01:14:50.300Z,9.27
2022-10-30T01:17:52.598Z,6.63
2022-10-30T01:20:36.557Z,5.90
2022-10-30T01:23:17.113Z,5.70
2022-10-30T01:26:01.966Z,5.28
2022-10-30T01:28:41.782Z,5.10
2022-10-30T01:31:24.465Z,5.23
2022-10-30T01:34:07.391Z,4.20
2022-10-30T01:36:41.357Z,4.80
2022-10-30T01:39:14.248Z,4.70
2022-10-30T01:41:42.768Z,7.67
2022-10-30T01:44:19.258Z,8.00
2022-10-30T01:46:59.711Z,8.75
2022-10-30T01:50:06.192Z,8.70
2022-10-30T01:52:43.176Z,8.93
2022-10-30T01:55:19.839Z,8.77
2022-10-30T01:57:59.194Z,6.03
2022-10-30T02:00:28.708Z,8.20
2022-10-30T02:02:59.500Z,8.80
2022-10-30T02:05:38.477Z,8.57
2022-10-30T02:08:06.874Z,8.93
2022-10-30T02:10:39.330Z,7.90
2022-10-30T02:13:07.102Z,8.70
2022-10-30T02:15:36.946Z,8.40
2022-10-30T02:18:05.679Z,9.27
2022-10-30T02:20:35.631Z,6.43
2022-10-30T02:23:04.453Z,7.37
2022-10-30T02:25:34.207Z,7.23
2022-10-30T02:28:02.230Z,8.33
2022-10-30T02:30:32.141Z,8.70
2022-10-30T02:33:02.317Z,6.77
2022-10-30T02:35:30.946Z,6.00
2022-10-30T02:38:00.462Z,6.93
2022-10-30T02:40:28.948Z,6.87
2022-10-30T02:42:57.693Z,5.57
2022-10-30T02:45:25.360Z,5.23
2022-10-30T02:47:56.056Z,5.20
2022-10-30T02:50:24.012Z,6.63
2022-10-30T02:52:52.752Z,7.20
2022-10-30T02:55:21.949Z,6.75
2022-10-30T02:57:49.791Z,7.07
2022-10-30T03:00:19.102Z,5.70
2022-10-30T03:02:46.919Z,6.23
2022-10-30T03:05:14.737Z,4.50
2022-10-30T03:07:42.393Z,5.97
2022-10-30T03:10:10.664Z,4.63
2022-10-30T03:12:39.756Z,4.30
2022-10-30T03:15:08.497Z,4.40
2022-10-30T03:17:36.806Z,5.20
2022-10-30T03:20:04.982Z,4.63
2022-10-30T03:22:34.192Z,5.47
2022-10-30T03:25:01.930Z,6.23
2022-10-30T03:27:29.791Z,4.83
2022-10-30T03:29:59.362Z,5.93
2022-10-30T03:32:27.609Z,5.67
2022-10-30T03:34:55.612Z,5.70
2022-10-30T03:37:23.460Z,6.83
2022-10-30T03:39:51.260Z,5.93
2022-10-30T03:42:22.322Z,7.40
2022-10-30T03:44:52.322Z,5.10
2022-10-30T03:47:23.491Z,5.30
2022-10-30T03:49:51.216Z,6.73
2022-10-30T03:52:21.324Z,5.60
2022-10-30T03:54:50.554Z,4.50
2022-10-30T03:57:20.403Z,6.57
2022-10-30T04:00:08.190Z,5.30
2022-10-30T04:02:47.523Z,4.97
2022-10-30T04:05:18.132Z,5.40
2022-10-30T04:07:46.674Z,4.73
2022-10-30T04:10:20.878Z,4.50
2022-10-30T04:12:51.635Z,4.27
2022-10-30T04:15:19.731Z,6.07
2022-10-30T04:17:52.413Z,5.87
2022-10-30T04:20:22.557Z,5.77
2022-10-30T04:22:56.142Z,5.27
2022-10-30T04:25:24.153Z,5.10
2022-10-30T04:27:53.114Z,5.03
2022-10-30T04:30:22.141Z,6.30
2022-10-30T04:32:49.980Z,6.43
2022-10-30T04:35:23.739Z,6.33
2022-10-30T04:37:55.848Z,5.10
2022-10-30T04:40:24.693Z,5.60
2022-10-30T04:42:58.396Z,6.50
2022-10-30T04:45:27.039Z,4.77
2022-10-30T04:48:01.819Z,6.30
2022-10-30T04:50:34.020Z,5.70
2022-10-30T04:53:05.253Z,4.43
2022-10-30T04:55:33.617Z,4.70
2022-10-30T04:58:02.929Z,4.07
2022-10-30T05:00:33.548Z,4.20
2022-10-30T05:03:17.081Z,4.67
2022-10-30T05:05:47.148Z,5.57
2022-10-30T05:08:14.918Z,4.40
2022-10-30T05:10:43.093Z,3.70
2022-10-30T05:13:12.286Z,5.50
2022-10-30T05:15:40.354Z,5.30
2022-10-30T05:18:09.413Z,4.63
2022-10-30T05:20:37.286Z,4.80
2022-10-30T05:23:06.786Z,4.47
2022-10-30T05:25:38.191Z,3.27
2022-10-30T05:28:08.998Z,4.60
2022-10-30T05:30:43.857Z,4.97
2022-10-30T05:33:24.347Z,3.87
2022-10-30T05:35:52.120Z,5.80
2022-10-30T05:38:21.457Z,4.30
2022-10-30T05:40:51.188Z,4.90
2022-10-30T05:43:19.566Z,3.90
2022-10-30T05:45:49.801Z,4.80
2022-10-30T05:48:19.101Z,4.67
2022-10-30T05:50:47.998Z,4.63
2022-10-30T05:53:28.058Z,4.30
2022-10-30T05:55:57.734Z,4.03
2022-10-30T05:58:26.630Z,4.03
2022-10-30T06:00:56.935Z,4.67
2022-10-30T06:03:39.439Z,4.47
2022-10-30T06:06:07.974Z,5.27
2022-10-30T06:08:37.785Z,4.63
2022-10-30T06:11:20.928Z,5.30
2022-10-30T06:13:53.724Z,5.37
2022-10-30T06:16:27.645Z,4.47
2022-10-30T06:19:15.471Z,4.17
2022-10-30T06:21:46.552Z,5.07
2022-10-30T06:24:19.256Z,4.73
2022-10-30T06:27:05.589Z,5.80
2022-10-30T06:29:33.403Z,5.10
2022-10-30T06:32:05.542Z,4.83
2022-10-30T06:34:34.885Z,5.70
2022-10-30T06:37:03.092Z,4.30
2022-10-30T06:39:32.708Z,4.97
2022-10-30T06:42:23.504Z,4.63
2022-10-30T06:45:09.395Z,5.00
2022-10-30T06:47:37.971Z,3.93
2022-10-30T06:50:07.086Z,5.00
2022-10-30T06:52:35.935Z,4.57
2022-10-30T06:55:07.007Z,4.13
2022-10-30T06:57:47.240Z,5.03
2022-10-30T07:00:33.701Z,5.07
2022-10-30T07:03:20.973Z,4.23
2022-10-30T07:05:49.365Z,4.53
2022-10-30T07:08:17.465Z,4.93
2022-10-30T07:10:46.597Z,4.90
2022-10-30T07:13:32.993Z,5.17
2022-10-30T07:16:19.331Z,5.50
2022-10-30T07:18:49.455Z,4.17
2022-10-30T07:21:17.594Z,5.00
2022-10-30T07:23:45.450Z,4.30
2022-10-30T07:26:46.715Z,4.27
2022-10-30T07:29:34.825Z,4.40
2022-10-30T07:32:20.997Z,4.83
2022-10-30T07:35:08.522Z,4.63
2022-10-30T07:37:57.020Z,4.63
2022-10-30T07:40:37.540Z,4.87
2022-10-30T07:43:26.515Z,4.73
2022-10-30T07:46:03.853Z,5.07
2022-10-30T07:48:57.700Z,4.93
2022-10-30T07:51:30.770Z,4.70
2022-10-30T07:53:58.969Z,3.93
2022-10-30T07:56:26.805Z,5.63
2022-10-30T07:58:58.533Z,4.60
2022-10-30T08:01:45.289Z,3.50
2022-10-30T08:04:45.557Z,4.20
2022-10-30T08:07:34.515Z,5.90
2022-10-30T08:10:02.499Z,4.00
2022-10-30T08:12:30.310Z,4.47
2022-10-30T08:14:59.598Z,4.35
2022-10-30T08:17:27.756Z,4.30
2022-10-30T08:19:56.980Z,4.60
2022-10-30T08:22:25.090Z,4.50
2022-10-30T08:25:00.518Z,4.57
2022-10-30T08:27:31.290Z,4.28
2022-10-30T08:30:00.381Z,4.15
2022-10-30T08:32:28.173Z,3.45
2022-10-30T08:35:19.471Z,3.75
2022-10-30T08:37:52.378Z,3.95
2022-10-30T08:40:22.241Z,4.30
2022-10-30T08:42:59.046Z,3.97
2022-10-30T08:45:31.174Z,4.15
2022-10-30T08:48:16.066Z,4.75
2022-10-30T08:50:45.587Z,3.25
2022-10-30T08:53:20.384Z,4.10
2022-10-30T08:55:49.376Z,4.35
2022-10-30T08:58:24.909Z,4.15
2022-10-30T09:00:58.702Z,4.03
2022-10-30T09:03:47.829Z,4.55
2022-10-30T09:06:34.349Z,4.05
2022-10-30T09:09:20.969Z,4.18
2022-10-30T09:11:53.505Z,4.25
2022-10-30T09:14:21.491Z,3.60
2022-10-30T09:16:50.609Z,3.80
2022-10-30T09:19:21.497Z,3.65
2022-10-30T09:21:50.473Z,3.70
2022-10-30T09:24:18.316Z,3.67
2022-10-30T09:26:51.950Z,3.53
2022-10-30T09:29:25.714Z,4.22
2022-10-30T09:32:00.489Z,4.07
2022-10-30T09:34:32.058Z,3.95
2022-10-30T09:37:08.320Z,3.50
2022-10-30T09:39:38.569Z,2.90
2022-10-30T09:42:39.208Z,4.13
2022-10-30T09:45:29.753Z,3.53
2022-10-30T09:48:14.487Z,4.03
2022-10-30T09:51:03.225Z,4.10
2022-10-30T09:53:39.788Z,3.53
2022-10-30T09:56:22.290Z,3.75
2022-10-30T09:59:02.710Z,3.47
2022-10-30T10:01:37.986Z,3.60
2022-10-30T10:04:26.705Z,4.18
2022-10-30T10:07:30.155Z,3.88
2022-10-30T10:10:25.106Z,3.50
2022-10-30T10:13:00.994Z,3.70
2022-10-30T10:15:38.383Z,3.42
2022-10-30T10:18:13.545Z,4.05
2022-10-30T10:20:46.157Z,3.50
2022-10-30T10:23:19.346Z,3.80
2022-10-30T10:25:54.480Z,3.60
2022-10-30T10:28:43.987Z,3.72
2022-10-30T10:31:25.048Z,3.83
2022-10-30T10:34:10.178Z,3.97
2022-10-30T10:36:47.456Z,3.60
2022-10-30T10:39:34.911Z,4.68
2022-10-30T10:42:18.545Z,4.13
2022-10-30T10:44:54.229Z,3.78
2022-10-30T10:47:46.826Z,3.63
2022-10-30T10:50:22.768Z,4.20
2022-10-30T10:52:57.486Z,4.50
2022-10-30T10:55:29.633Z,3.65
2022-10-30T10:58:02.781Z,3.22
2022-10-30T11:00:31.314Z,3.60
2022-10-30T11:03:06.274Z,3.55
2022-10-30T11:05:37.118Z,3.95
2022-10-30T11:08:14.335Z,3.30
2022-10-30T11:10:42.077Z,4.47
2022-10-30T11:13:14.595Z,3.67
2022-10-30T11:15:52.353Z,3.65
2022-10-30T11:18:20.057Z,3.63
2022-10-30T11:20:58.116Z,4.07
2022-10-30T11:23:39.805Z,4.45
2022-10-30T11:26:28.352Z,3.97
2022-10-30T11:28:58.976Z,2.78
2022-10-30T11:31:34.191Z,3.70
2022-10-30T11:34:29.552Z,3.08
2022-10-30T11:36:57.607Z,4.07
2022-10-30T11:39:29.065Z,3.60
2022-10-30T11:42:04.206Z,4.43
2022-10-30T11:44:36.193Z,2.80
2022-10-30T11:47:05.249Z,2.97
2022-10-30T11:49:42.161Z,3.25
2022-10-30T11:52:10.876Z,3.35
2022-10-30T11:54:44.758Z,3.15
2022-10-30T11:57:21.589Z,2.95
2022-10-30T11:59:51.731Z,3.58
2022-10-30T12:02:22.859Z,3.70
2022-10-30T12:04:51.861Z,2.60
2022-10-30T12:07:26.166Z,2.88
2022-10-30T12:09:55.297Z,2.58
2022-10-30T12:12:27.753Z,2.72
2022-10-30T12:14:56.206Z,3.75
2022-10-30T12:17:24.502Z,2.75
2022-10-30T12:19:57.334Z,3.53
2022-10-30T12:22:33.166Z,2.90
2022-10-30T12:25:04.932Z,3.67
2022-10-30T12:27:37.444Z,3.45
2022-10-30T12:30:16.949Z,2.63
2022-10-30T12:32:51.351Z,2.80
2022-10-30T12:35:28.406Z,2.50
2022-10-30T12:37:58.434Z,2.55
2022-10-30T12:40:31.826Z,2.72
2022-10-30T12:43:06.595Z,3.25
2022-10-30T12:45:41.221Z,2.95
2022-10-30T12:48:17.627Z,3.08
2022-10-30T12:50:56.989Z,2.95
2022-10-30T12:53:30.123Z,3.50
2022-10-30T12:56:02.859Z,3.30
2022-10-30T12:58:38.518Z,2.58
2022-10-30T13:01:14.109Z,4.03
2022-10-30T13:03:49.975Z,3.03
2022-10-30T13:06:22.010Z,3.70
2022-10-30T13:08:59.824Z,3.75
2022-10-30T13:11:40.936Z,2.83
2022-10-30T13:14:15.831Z,3.72
2022-10-30T13:16:43.655Z,4.40
2022-10-30T13:19:14.874Z,3.45
2022-10-30T13:21:54.165Z,2.88
2022-10-30T13:24:26.319Z,3.03
2022-10-30T13:27:01.507Z,3.92
2022-10-30T13:29:38.517Z,2.80
2022-10-30T13:32:25.755Z,3.30
2022-10-30T13:34:59.697Z,3.78
2022-10-30T13:37:35.940Z,3.90
2022-10-30T13:40:17.344Z,3.05
2022-10-30T13:42:58.010Z,4.85
2022-10-30T13:45:50.674Z,4.32
2022-10-30T13:48:31.101Z,4.10
2022-10-30T13:51:17.526Z,4.40
2022-10-30T13:53:49.407Z,3.45
2022-10-30T13:56:22.003Z,4.45
2022-10-30T13:59:10.061Z,5.30
2022-10-30T14:01:44.768Z,4.33
2022-10-30T14:04:18.749Z,4.32
2022-10-30T14:06:54.935Z,4.05
2022-10-30T14:09:31.239Z,5.07
2022-10-30T14:12:02.151Z,5.68
2022-10-30T14:14:32.642Z,5.22
2022-10-30T14:17:13.252Z,5.78
2022-10-30T14:20:17.402Z,4.97
2022-10-30T14:23:09.992Z,4.57
2022-10-30T14:25:37.905Z,4.35
2022-10-30T14:28:20.630Z,4.00
2022-10-30T14:31:03.226Z,5.13
2022-10-30T14:33:36.344Z,5.65
2022-10-30T14:36:14.704Z,5.50
2022-10-30T14:38:42.648Z,5.67
2022-10-30T14:41:38.890Z,4.40
2022-10-30T14:44:38.680Z,5.00
2022-10-30T14:47:46.011Z,4.93
2022-10-30T14:50:28.981Z,3.92
2022-10-30T14:53:11.323Z,4.53
2022-10-30T14:55:51.910Z,3.63
2022-10-30T14:58:26.032Z,3.00
2022-10-30T15:01:25.707Z,3.20
2022-10-30T15:04:05.646Z,3.78
2022-10-30T15:06:43.612Z,3.88
2022-10-30T15:09:34.995Z,3.70
2022-10-30T15:12:31.187Z,3.30
2022-10-30T15:15:02.996Z,4.72
2022-10-30T15:17:34.304Z,4.32
2022-10-30T15:20:06.001Z,3.60
2022-10-30T15:22:36.247Z,4.30
2022-10-30T15:25:06.041Z,4.13
2022-10-30T15:27:35.663Z,19.77
2022-10-30T15:30:05.745Z,14.83
2022-10-30T15:32:33.574Z,10.45
2022-10-30T15:35:06.280Z,10.10
2022-10-30T15:37:35.394Z,10.18
2022-10-30T15:40:18.173Z,18.00
2022-10-30T15:42:47.517Z,21.33
2022-10-30T15:45:19.109Z,23.83
2022-10-30T15:47:51.410Z,16.47
2022-10-30T15:50:22.016Z,19.73
2022-10-30T15:52:52.278Z,18.73
2022-10-30T15:55:26.882Z,16.90
2022-10-30T15:58:12.920Z,14.20
2022-10-30T16:00:41.004Z,14.63
2022-10-30T16:03:18.300Z,10.60
2022-10-30T16:05:46.365Z,13.00
2022-10-30T16:08:17.426Z,10.35
2022-10-30T16:10:47.488Z,12.82
2022-10-30T16:13:18.912Z,10.82
2022-10-30T16:15:47.993Z,10.97
2022-10-30T16:18:21.169Z,11.13
2022-10-30T16:20:52.209Z,10.20
2022-10-30T16:23:21.688Z,10.75
2022-10-30T16:25:55.889Z,10.27
2022-10-30T16:28:26.157Z,10.23
2022-10-30T16:30:54.663Z,9.75
2022-10-30T16:33:27.433Z,9.52
2022-10-30T16:35:56.539Z,9.07
2022-10-30T16:38:29.237Z,12.07
2022-10-30T16:40:57.506Z,12.93
2022-10-30T16:43:28.317Z,10.98
2022-10-30T16:45:57.965Z,14.63
2022-10-30T16:48:30.088Z,12.03
2022-10-30T16:51:01.781Z,14.00
2022-10-30T16:53:31.856Z,13.93
2022-10-30T16:56:00.753Z,13.50
2022-10-30T16:58:31.037Z,12.10
2022-10-30T17:01:05.520Z,11.15
2022-10-30T17:03:38.147Z,14.60
2022-10-30T17:06:08.816Z,12.02
2022-10-30T17:08:42.555Z,12.02
2022-10-30T17:11:18.909Z,14.25
2022-10-30T17:14:01.216Z,12.68
2022-10-30T17:16:30.566Z,12.65
2022-10-30T17:19:02.380Z,10.45
2022-10-30T17:21:39.514Z,14.88
2022-10-30T17:24:21.370Z,11.90
2022-10-30T17:26:58.357Z,14.82
2022-10-30T17:29:45.491Z,14.90
2022-10-30T17:32:20.107Z,15.38
2022-10-30T17:34:48.761Z,15.00
2022-10-30T17:37:16.610Z,15.37
2022-10-30T17:39:45.712Z,13.65
2022-10-30T17:42:13.511Z,16.00
2022-10-30T17:44:41.345Z,14.13
2022-10-30T17:47:16.515Z,14.38
2022-10-30T17:49:45.019Z,12.68
2022-10-30T17:52:17.317Z,15.00
2022-10-30T17:54:46.628Z,11.70
2022-10-30T17:57:16.212Z,14.43
2022-10-30T17:59:46.538Z,11.15
2022-10-30T18:02:15.871Z,11.88
2022-10-30T18:04:44.274Z,13.77
2022-10-30T18:07:12.907Z,14.52
2022-10-30T18:09:40.844Z,15.05
2022-10-30T18:12:15.013Z,17.10
2022-10-30T18:14:45.451Z,14.50
2022-10-30T18:17:13.501Z,14.27
2022-10-30T18:19:41.349Z,13.90
2022-10-30T18:22:11.158Z,12.93
2022-10-30T18:24:38.907Z,12.48
2022-10-30T18:27:06.693Z,12.40
2022-10-30T18:29:35.867Z,10.85
2022-10-30T18:32:09.524Z,12.40
2022-10-30T18:34:37.564Z,13.02
2022-10-30T18:37:06.204Z,12.68
2022-10-30T18:39:34.035Z,12.80
2022-10-30T18:42:01.863Z,9.73
2022-10-30T18:44:29.966Z,14.70
2022-10-30T18:47:02.961Z,11.80
2022-10-30T18:49:33.273Z,11.63
2022-10-30T18:52:01.011Z,12.85
2022-10-30T18:54:28.819Z,12.43
2022-10-30T18:56:56.672Z,11.25
2022-10-30T18:59:26.635Z,12.07
2022-10-30T19:01:54.567Z,13.80
2022-10-30T19:04:23.809Z,12.88
2022-10-30T19:06:51.939Z,14.70
2022-10-30T19:09:19.652Z,12.00
2022-10-30T19:11:47.544Z,12.65
2022-10-30T19:14:16.448Z,13.13
2022-10-30T19:16:44.652Z,13.00
2022-10-30T19:19:14.808Z,9.93
2022-10-30T19:21:43.857Z,9.55
2022-10-30T19:24:15.001Z,9.98
2022-10-30T19:26:45.121Z,14.88
2022-10-30T19:29:12.858Z,14.43
2022-10-30T19:31:40.630Z,12.90
2022-10-30T19:34:08.326Z,14.48
2022-10-30T19:36:37.847Z,12.17
2022-10-30T19:39:12.576Z,12.60
2022-10-30T19:41:41.186Z,9.60
2022-10-30T19:44:09.273Z,14.63
2022-10-30T19:46:37.485Z,12.35
2022-10-30T19:49:16.075Z,13.85
2022-10-30T19:51:43.784Z,16.33
2022-10-30T19:54:12.949Z,15.90
2022-10-30T19:56:42.163Z,12.50
2022-10-30T19:59:10.575Z,13.10
2022-10-30T20:01:38.441Z,12.77
2022-10-30T20:04:06.352Z,15.50
2022-10-30T20:06:34.480Z,16.80
2022-10-30T20:09:02.584Z,15.10
2022-10-30T20:11:31.895Z,13.73
2022-10-30T20:13:59.620Z,13.10
2022-10-30T20:16:29.415Z,14.90
2022-10-30T20:18:57.147Z,13.40
2022-10-30T20:21:24.973Z,9.75
2022-10-30T20:23:52.740Z,12.30
2022-10-30T20:26:25.225Z,12.05
2022-10-30T20:28:54.699Z,12.18
2022-10-30T20:31:23.365Z,9.40
2022-10-30T20:33:51.076Z,10.52
2022-10-30T20:36:18.833Z,16.05
2022-10-30T20:38:46.549Z,12.53
2022-10-30T20:41:21.968Z,10.45
2022-10-30T20:43:51.026Z,10.88
2022-10-30T20:46:21.377Z,8.88
2022-10-30T20:48:49.334Z,10.40
2022-10-30T20:51:17.047Z,10.55
2022-10-30T20:53:44.843Z,11.77
2022-10-30T20:56:12.601Z,11.40
2022-10-30T20:58:40.392Z,11.10
2022-10-30T21:01:08.204Z,8.85
2022-10-30T21:03:37.329Z,7.73
2022-10-30T21:06:06.135Z,9.60
2022-10-30T21:08:33.811Z,7.72
2022-10-30T21:11:02.933Z,7.93
2022-10-30T21:13:31.246Z,8.00
2022-10-30T21:16:01.880Z,8.00
2022-10-30T21:18:29.600Z,8.80
2022-10-30T21:21:02.386Z,8.93
2022-10-30T21:23:30.337Z,6.30
2022-10-30T21:26:01.068Z,6.50
2022-10-30T21:28:29.063Z,5.25
2022-10-30T21:31:02.007Z,5.82
2022-10-30T21:33:31.216Z,8.52
2022-10-30T21:36:09.011Z,11.50
2022-10-30T21:38:42.601Z,11.00
2022-10-30T21:41:11.243Z,8.88
2022-10-30T21:43:38.990Z,7.80
2022-10-30T21:46:07.462Z,8.13
2022-10-30T21:48:35.377Z,9.02
2022-10-30T21:51:10.793Z,9.77
2022-10-30T21:53:38.644Z,9.40
2022-10-30T21:56:10.568Z,10.20
2022-10-30T21:58:38.415Z,9.00
2022-10-30T22:01:06.904Z,10.10
2022-10-30T22:03:34.906Z,8.15
2022-10-30T22:06:06.893Z,6.70
2022-10-30T22:08:34.632Z,9.67
2022-10-30T22:11:06.168Z,6.70
2022-10-30T22:13:35.923Z,8.90
2022-10-30T22:16:05.038Z,7.10
2022-10-30T22:18:33.413Z,7.32
2022-10-30T22:21:02.147Z,7.73
2022-10-30T22:23:30.539Z,7.57
2022-10-30T22:25:59.800Z,9.90
2022-10-30T22:28:28.346Z,10.77
2022-10-30T22:31:02.469Z,7.50
2022-10-30T22:33:31.515Z,9.07
2022-10-30T22:36:02.954Z,8.40
2022-10-30T22:38:30.645Z,8.50
2022-10-30T22:41:11.665Z,10.27
2022-10-30T22:43:39.455Z,8.43
2022-10-30T22:46:08.806Z,9.75
2022-10-30T22:48:36.724Z,8.52
2022-10-30T22:51:07.677Z,9.63
2022-10-30T22:53:38.021Z,10.17
2022-10-30T22:56:13.769Z,9.73
2022-10-30T22:58:41.933Z,11.27
2022-10-30T23:01:13.242Z,9.02
2022-10-30T23:03:41.391Z,6.68
2022-10-30T23:06:09.944Z,7.88
2022-10-30T23:08:37.746Z,8.00
2022-10-30T23:11:06.757Z,7.90
2022-10-30T23:13:36.066Z,5.70
2022-10-30T23:16:09.056Z,7.10
2022-10-30T23:18:38.288Z,7.00
2022-10-30T23:21:08.743Z,5.63
2022-10-30T23:23:37.025Z,5.10
2022-10-30T23:26:06.165Z,4.70
2022-10-30T23:28:36.625Z,6.07
2022-10-30T23:31:05.368Z,5.97
2022-10-30T23:33:33.098Z,5.88
2022-10-30T23:36:02.596Z,4.57
2022-10-30T23:38:30.474Z,7.00
2022-10-30T23:40:58.304Z,8.68
2022-10-30T23:43:26.113Z,6.45
2022-10-30T23:45:53.797Z,5.32
2022-10-30T23:48:21.529Z,5.97
2022-10-30T23:50:49.285Z,5.28
2022-10-30T23:53:18.439Z,5.65
2022-10-30T23:55:51.743Z,4.72
2022-10-30T23:58:19.695Z,5.63
